Accueil
METAR-TAF:

METAR-TAF

Aéroports :

Mönchengladbach, Allemagne

latitude: 51-13-49N, longitude: 006-30-16E, altitude: 38 m

Observation

Le bulletin a été fait il y a 42 minutes, à 10:50 UTC
Vent 1 kt de direction variable
Température 13°C
Humidité 62%
Pression 1031 hPa
Visibilité: 7000 m

METAR: EDLN 201050Z VRB01KT 7000 NSC 13/06 Q1031

Heure: 13:32 (11:32 UTC)

Prévision

Le bulletin a été fait il y a 3 heures et 32 minutes, à 08:00 UTC
Prévision valable du 20 à 09 UTC au 20 à 18 UTC
Vent 4 kt de nord/nord-ouest
Visibilité: 3500 m
brume
Evoluant progressivement
du 20 à 09 UTC au 20 à 11 UTC
Visibilité 10 km ou plus
pas de nuages en-dessous de 1500 mètres et pas de cumulonimbus.

TAF: EDLN 200800Z 2009/2018 34004KT 3500 BR NSC BECMG 2009/2011 CAVOK

Observations et prévisions météorologiques de plus de 4000 aéroports (messages METAR et TAF).

Les stations disponibles sont représentées par des disques jaunes et rouges sur la carte.

Passer la souris dessus pour voir le nom de la station.

Cliquer dessus pour voir les observations et prévisions météorologiques.

Pour changer de carte: cliquez sur les boutons verts avec une croix noire pour zoomer, sur le bouton vert avec un tiret pour effectuer un zoom arrière, ou sur les flèches vertes pour les cartes adjacentes.


METAR-TAF: